sensor_id;sensor_type;location;lat;lon;timestamp;pressure;altitude;pressure_sealevel;temperature;humidity
68525;BME280;55524;51.380;13.372;2023-01-27T00:00:22;101175.94;;;-1.65;100.00
68525;BME280;55524;51.380;13.372;2023-01-27T00:02:49;101174.25;;;-1.63;100.00
68525;BME280;55524;51.380;13.372;2023-01-27T00:05:16;101173.28;;;-1.68;100.00
68525;BME280;55524;51.380;13.372;2023-01-27T00:07:43;101182.03;;;-1.63;100.00
68525;BME280;55524;51.380;13.372;2023-01-27T00:10:17;101170.69;;;-1.68;100.00
68525;BME280;55524;51.380;13.372;2023-01-27T00:12:45;101170.69;;;-1.68;100.00
68525;BME280;55524;51.380;13.372;2023-01-27T00:15:31;101160.41;;;-1.65;100.00
68525;BME280;55524;51.380;13.372;2023-01-27T00:17:58;101160.50;;;-1.61;100.00
68525;BME280;55524;51.380;13.372;2023-01-27T00:20:25;101166.28;;;-1.73;100.00
68525;BME280;55524;51.380;13.372;2023-01-27T00:23:18;101162.22;;;-1.61;100.00
68525;BME280;55524;51.380;13.372;2023-01-27T00:26:06;101149.97;;;-1.68;100.00
68525;BME280;55524;51.380;13.372;2023-01-27T00:28:36;101151.63;;;-1.70;100.00
68525;BME280;55524;51.380;13.372;2023-01-27T00:31:04;101149.78;;;-1.76;100.00
68525;BME280;55524;51.380;13.372;2023-01-27T00:33:31;101145.53;;;-1.73;100.00
68525;BME280;55524;51.380;13.372;2023-01-27T00:36:02;101150.56;;;-1.79;100.00
68525;BME280;55524;51.380;13.372;2023-01-27T00:38:30;101150.44;;;-1.85;100.00
68525;BME280;55524;51.380;13.372;2023-01-27T00:40:57;101149.88;;;-1.71;100.00
68525;BME280;55524;51.380;13.372;2023-01-27T00:43:42;101149.03;;;-1.70;100.00
68525;BME280;55524;51.380;13.372;2023-01-27T00:46:09;101154.28;;;-1.69;100.00
68525;BME280;55524;51.380;13.372;2023-01-27T00:48:35;101149.03;;;-1.70;100.00
68525;BME280;55524;51.380;13.372;2023-01-27T00:51:01;101152.44;;;-1.73;100.00
68525;BME280;55524;51.380;13.372;2023-01-27T00:53:28;101150.13;;;-1.62;100.00
68525;BME280;55524;51.380;13.372;2023-01-27T00:55:54;101149.16;;;-1.66;100.00
68525;BME280;55524;51.380;13.372;2023-01-27T00:58:26;101150.81;;;-1.69;100.00
68525;BME280;55524;51.380;13.372;2023-01-27T01:00:57;101149.13;;;-1.67;100.00
68525;BME280;55524;51.380;13.372;2023-01-27T01:03:31;101151.69;;;-1.67;100.00
68525;BME280;55524;51.380;13.372;2023-01-27T01:06:07;101153.41;;;-1.69;100.00
68525;BME280;55524;51.380;13.372;2023-01-27T01:08:36;101161.19;;;-1.69;100.00
68525;BME280;55524;51.380;13.372;2023-01-27T01:11:06;101157.06;;;-1.60;100.00
68525;BME280;55524;51.380;13.372;2023-01-27T01:13:33;101161.38;;;-1.60;100.00
68525;BME280;55524;51.380;13.372;2023-01-27T01:16:18;101160.50;;;-1.61;100.00
68525;BME280;55524;51.380;13.372;2023-01-27T01:18:45;101162.91;;;-1.68;100.00
68525;BME280;55524;51.380;13.372;2023-01-27T01:21:11;101163.78;;;-1.68;100.00
68525;BME280;55524;51.380;13.372;2023-01-27T01:23:39;101154.47;;;-1.60;100.00
68525;BME280;55524;51.380;13.372;2023-01-27T01:26:06;101156.00;;;-1.68;100.00
68525;BME280;55524;51.380;13.372;2023-01-27T01:28:32;101159.44;;;-1.69;100.00
68525;BME280;55524;51.380;13.372;2023-01-27T01:31:07;101157.84;;;-1.64;100.00
68525;BME280;55524;51.380;13.372;2023-01-27T01:33:34;101162.91;;;-1.68;100.00
68525;BME280;55524;51.380;13.372;2023-01-27T01:36:09;101157.75;;;-1.67;100.00
68525;BME280;55524;51.380;13.372;2023-01-27T01:38:36;101153.28;;;-1.74;100.00
68525;BME280;55524;51.380;13.372;2023-01-27T01:41:05;101153.31;;;-1.73;100.00
68525;BME280;55524;51.380;13.372;2023-01-27T01:43:31;101154.28;;;-1.67;100.00
68525;BME280;55524;51.380;13.372;2023-01-27T01:45:59;101152.66;;;-1.64;100.00
68525;BME280;55524;51.380;13.372;2023-01-27T01:59:05;101148.94;;;-1.75;100.00
68525;BME280;55524;51.380;13.372;2023-01-27T02:01:33;101153.41;;;-1.69;100.00
68525;BME280;55524;51.380;13.372;2023-01-27T02:04:03;101147.47;;;-1.64;100.00
68525;BME280;55524;51.380;13.372;2023-01-27T02:06:32;101150.84;;;-1.68;100.00
68525;BME280;55524;51.380;13.372;2023-01-27T02:09:01;101148.25;;;-1.66;100.00
68525;BME280;55524;51.380;13.372;2023-01-27T02:11:28;101154.09;;;-1.77;100.00
68525;BME280;55524;51.380;13.372;2023-01-27T02:13:54;101155.16;;;-1.67;100.00
68525;BME280;55524;51.380;13.372;2023-01-27T02:16:20;101156.69;;;-1.77;100.00
68525;BME280;55524;51.380;13.372;2023-01-27T02:18:47;101160.16;;;-1.75;100.00
68525;BME280;55524;51.380;13.372;2023-01-27T02:21:14;101163.69;;;-1.73;100.00
68525;BME280;55524;51.380;13.372;2023-01-27T02:26:16;101159.44;;;-1.69;100.00
68525;BME280;55524;51.380;13.372;2023-01-27T02:28:44;101157.56;;;-1.76;100.00
68525;BME280;55524;51.380;13.372;2023-01-27T02:31:10;101163.69;;;-1.73;100.00
68525;BME280;55524;51.380;13.372;2023-01-27T02:33:37;101168.69;;;-1.79;100.00
68525;BME280;55524;51.380;13.372;2023-01-27T02:36:08;101168.84;;;-1.74;100.00
68525;BME280;55524;51.380;13.372;2023-01-27T02:38:48;101171.47;;;-1.71;100.00
68525;BME280;55524;51.380;13.372;2023-01-27T02:41:30;101181.91;;;-1.69;100.00
68525;BME280;55524;51.380;13.372;2023-01-27T02:43:58;101173.09;;;-1.76;100.00
68525;BME280;55524;51.380;13.372;2023-01-27T02:46:25;101175.03;;;-1.67;100.00
68525;BME280;55524;51.380;13.372;2023-01-27T02:48:51;101180.97;;;-1.71;100.00
68525;BME280;55524;51.380;13.372;2023-01-27T02:51:17;101183.47;;;-1.75;100.00
68525;BME280;55524;51.380;13.372;2023-01-27T02:53:44;101183.63;;;-1.70;100.00
68525;BME280;55524;51.380;13.372;2023-01-27T02:56:11;101187.91;;;-1.70;100.00
68525;BME280;55524;51.380;13.372;2023-01-27T02:58:37;101185.38;;;-1.67;100.00
68525;BME280;55524;51.380;13.372;2023-01-27T03:01:04;101186.16;;;-1.71;100.00
68525;BME280;55524;51.380;13.372;2023-01-27T03:03:30;101184.44;;;-1.71;100.00
68525;BME280;55524;51.380;13.372;2023-01-27T03:05:56;101181.81;;;-1.73;100.00
68525;BME280;55524;51.380;13.372;2023-01-27T03:08:23;101185.31;;;-1.70;100.00
68525;BME280;55524;51.380;13.372;2023-01-27T03:10:51;101186.22;;;-1.70;100.00
68525;BME280;55524;51.380;13.372;2023-01-27T03:13:24;101187.94;;;-1.69;100.00
68525;BME280;55524;51.380;13.372;2023-01-27T03:15:51;101184.63;;;-1.63;100.00
68525;BME280;55524;51.380;13.372;2023-01-27T03:18:36;101186.25;;;-1.67;100.00
68525;BME280;55524;51.380;13.372;2023-01-27T03:21:04;101182.13;;;-1.59;100.00
68525;BME280;55524;51.380;13.372;2023-01-27T03:23:31;101186.53;;;-1.55;100.00
68525;BME280;55524;51.380;13.372;2023-01-27T03:26:04;101183.91;;;-1.58;100.00
68525;BME280;55524;51.380;13.372;2023-01-27T03:28:31;101189.97;;;-1.57;100.00
68525;BME280;55524;51.380;13.372;2023-01-27T03:31:08;101201.22;;;-1.55;100.00
68525;BME280;55524;51.380;13.372;2023-01-27T03:33:45;101191.19;;;-1.41;100.00
68525;BME280;55524;51.380;13.372;2023-01-27T03:36:13;101192.66;;;-1.53;100.00
68525;BME280;55524;51.380;13.372;2023-01-27T03:38:58;101180.59;;;-1.51;100.00
68525;BME280;55524;51.380;13.372;2023-01-27T03:41:42;101192.00;;;-1.44;100.00
68525;BME280;55524;51.380;13.372;2023-01-27T03:44:27;101200.63;;;-1.45;100.00
68525;BME280;55524;51.380;13.372;2023-01-27T03:47:12;101201.50;;;-1.44;100.00
68525;BME280;55524;51.380;13.372;2023-01-27T03:49:38;101203.28;;;-1.42;100.00
68525;BME280;55524;51.380;13.372;2023-01-27T03:52:05;101211.88;;;-1.43;100.00
68525;BME280;55524;51.380;13.372;2023-01-27T03:54:31;101209.25;;;-1.46;100.00
68525;BME280;55524;51.380;13.372;2023-01-27T03:56:57;101207.53;;;-1.44;100.00
68525;BME280;55524;51.380;13.372;2023-01-27T03:59:31;101204.16;;;-1.41;100.00
68525;BME280;55524;51.380;13.372;2023-01-27T04:01:58;101202.22;;;-1.50;100.00
68525;BME280;55524;51.380;13.372;2023-01-27T04:04:44;101200.31;;;-1.57;100.00
68525;BME280;55524;51.380;13.372;2023-01-27T04:07:29;101203.03;;;-1.53;100.00
68525;BME280;55524;51.380;13.372;2023-01-27T04:09:55;101197.91;;;-1.50;100.00
68525;BME280;55524;51.380;13.372;2023-01-27T04:12:21;101203.75;;;-1.58;100.00
68525;BME280;55524;51.380;13.372;2023-01-27T04:14:47;101198.72;;;-1.52;100.00
68525;BME280;55524;51.380;13.372;2023-01-27T04:17:16;101196.00;;;-1.58;100.00
68525;BME280;55524;51.380;13.372;2023-01-27T04:19:44;101201.38;;;-1.49;100.00
68525;BME280;55524;51.380;13.372;2023-01-27T04:22:14;101201.28;;;-1.54;100.00
68525;BME280;55524;51.380;13.372;2023-01-27T04:24:41;101203.00;;;-1.54;100.00
68525;BME280;55524;51.380;13.372;2023-01-27T04:27:09;101209.09;;;-1.52;100.00
68525;BME280;55524;51.380;13.372;2023-01-27T04:29:38;101209.88;;;-1.55;100.00
68525;BME280;55524;51.380;13.372;2023-01-27T04:32:07;101209.94;;;-1.52;100.00
68525;BME280;55524;51.380;13.372;2023-01-27T04:34:34;101206.34;;;-1.58;100.00
68525;BME280;55524;51.380;13.372;2023-01-27T04:37:01;101211.66;;;-1.54;100.00
68525;BME280;55524;51.380;13.372;2023-01-27T04:39:28;101220.38;;;-1.50;100.00
68525;BME280;55524;51.380;13.372;2023-01-27T04:41:57;101218.56;;;-1.54;100.00
68525;BME280;55524;51.380;13.372;2023-01-27T04:44:24;101220.47;;;-1.45;100.00
68525;BME280;55524;51.380;13.372;2023-01-27T04:46:51;101223.00;;;-1.49;100.00
68525;BME280;55524;51.380;13.372;2023-01-27T04:49:17;101224.06;;;-1.40;100.00
68525;BME280;55524;51.380;13.372;2023-01-27T04:51:44;101228.34;;;-1.42;100.00
68525;BME280;55524;51.380;13.372;2023-01-27T04:54:10;101227.50;;;-1.40;100.00
68525;BME280;55524;51.380;13.372;2023-01-27T04:56:39;101224.06;;;-1.39;100.00
68525;BME280;55524;51.380;13.372;2023-01-27T04:59:13;101219.72;;;-1.40;100.00
68525;BME280;55524;51.380;13.372;2023-01-27T05:01:42;101221.44;;;-1.42;100.00
68525;BME280;55524;51.380;13.372;2023-01-27T05:04:08;101227.50;;;-1.40;100.00
68525;BME280;55524;51.380;13.372;2023-01-27T05:06:34;101229.34;;;-1.36;100.00
68525;BME280;55524;51.380;13.372;2023-01-27T05:09:03;101225.88;;;-1.36;100.00
68525;BME280;55524;51.380;13.372;2023-01-27T05:11:30;101227.38;;;-1.46;100.00
68525;BME280;55524;51.380;13.372;2023-01-27T05:13:56;101225.56;;;-1.50;100.00
68525;BME280;55524;51.380;13.372;2023-01-27T05:16:23;101227.38;;;-1.46;100.00
68525;BME280;55524;51.380;13.372;2023-01-27T05:18:54;101219.72;;;-1.41;100.00
68525;BME280;55524;51.380;13.372;2023-01-27T05:21:24;101221.38;;;-1.43;100.00
68525;BME280;55524;51.380;13.372;2023-01-27T05:23:53;101225.94;;;-1.33;100.00
68525;BME280;55524;51.380;13.372;2023-01-27T05:26:21;101224.91;;;-1.40;100.00
68525;BME280;55524;51.380;13.372;2023-01-27T05:28:49;101229.25;;;-1.39;100.00
68525;BME280;55524;51.380;13.372;2023-01-27T05:31:18;101226.66;;;-1.39;100.00
68525;BME280;55524;51.380;13.372;2023-01-27T05:33:46;101229.25;;;-1.39;100.00
68525;BME280;55524;51.380;13.372;2023-01-27T05:36:15;101232.81;;;-1.35;100.00
68525;BME280;55524;51.380;13.372;2023-01-27T05:38:42;101235.63;;;-1.26;100.00
68525;BME280;55524;51.380;13.372;2023-01-27T05:41:10;101231.03;;;-1.38;100.00
68525;BME280;55524;51.380;13.372;2023-01-27T05:43:38;101238.81;;;-1.38;100.00
68525;BME280;55524;51.380;13.372;2023-01-27T05:46:13;101241.63;;;-1.27;100.00
68525;BME280;55524;51.380;13.372;2023-01-27T05:48:45;101231.16;;;-1.32;100.00
68525;BME280;55524;51.380;13.372;2023-01-27T05:51:13;101234.75;;;-1.27;100.00
68525;BME280;55524;51.380;13.372;2023-01-27T05:53:40;101239.09;;;-1.26;100.00
68525;BME280;55524;51.380;13.372;2023-01-27T05:56:08;101235.44;;;-1.34;100.00
68525;BME280;55524;51.380;13.372;2023-01-27T05:58:35;101242.28;;;-1.36;100.00
68525;BME280;55524;51.380;13.372;2023-01-27T06:01:11;101239.88;;;-1.28;100.00
68525;BME280;55524;51.380;13.372;2023-01-27T06:03:38;101238.13;;;-1.31;100.00
68525;BME280;55524;51.380;13.372;2023-01-27T06:06:06;101243.31;;;-1.31;100.00
68525;BME280;55524;51.380;13.372;2023-01-27T06:08:33;101240.56;;;-1.35;100.00
68525;BME280;55524;51.380;13.372;2023-01-27T06:11:00;101241.53;;;-1.32;100.00
68525;BME280;55524;51.380;13.372;2023-01-27T06:13:27;101235.53;;;-1.31;100.00
68525;BME280;55524;51.380;13.372;2023-01-27T06:15:54;101239.63;;;-1.39;100.00
68525;BME280;55524;51.380;13.372;2023-01-27T06:18:22;101236.97;;;-1.42;100.00
68525;BME280;55524;51.380;13.372;2023-01-27T06:20:49;101241.31;;;-1.41;100.00
68525;BME280;55524;51.380;13.372;2023-01-27T06:23:17;101236.97;;;-1.42;100.00
68525;BME280;55524;51.380;13.372;2023-01-27T06:25:45;101234.31;;;-1.45;100.00
68525;BME280;55524;51.380;13.372;2023-01-27T06:28:20;101246.41;;;-1.44;100.00
68525;BME280;55524;51.380;13.372;2023-01-27T06:30:47;101243.16;;;-1.35;100.00
68525;BME280;55524;51.380;13.372;2023-01-27T06:33:16;101247.56;;;-1.33;100.00
68525;BME280;55524;51.380;13.372;2023-01-27T06:35:42;101244.19;;;-1.29;100.00
68525;BME280;55524;51.380;13.372;2023-01-27T06:38:11;101245.00;;;-1.31;100.00
68525;BME280;55524;51.380;13.372;2023-01-27T06:40:39;101247.53;;;-1.34;100.00
68525;BME280;55524;51.380;13.372;2023-01-27T06:43:13;101254.28;;;-1.41;100.00
68525;BME280;55524;51.380;13.372;2023-01-27T06:45:40;101263.19;;;-1.30;100.00
68525;BME280;55524;51.380;13.372;2023-01-27T06:48:07;101261.50;;;-1.28;100.00
68525;BME280;55524;51.380;13.372;2023-01-27T06:50:34;101260.53;;;-1.31;100.00
68525;BME280;55524;51.380;13.372;2023-01-27T06:53:04;101262.19;;;-1.35;100.00
68525;BME280;55524;51.380;13.372;2023-01-27T06:55:36;101266.56;;;-1.34;100.00
68525;BME280;55524;51.380;13.372;2023-01-27T06:58:13;101276.06;;;-1.33;100.00
68525;BME280;55524;51.380;13.372;2023-01-27T07:00:41;101264.97;;;-1.27;100.00
68525;BME280;55524;51.380;13.372;2023-01-27T07:03:10;101280.31;;;-1.35;100.00
68525;BME280;55524;51.380;13.372;2023-01-27T07:05:38;101270.88;;;-1.33;100.00
68525;BME280;55524;51.380;13.372;2023-01-27T07:08:05;101270.16;;;-1.27;100.00
68525;BME280;55524;51.380;13.372;2023-01-27T07:10:31;101279.66;;;-1.28;100.00
68525;BME280;55524;51.380;13.372;2023-01-27T07:13:27;101278.66;;;-1.33;100.00
68525;BME280;55524;51.380;13.372;2023-01-27T07:15:54;101277.88;;;-1.30;100.00
68525;BME280;55524;51.380;13.372;2023-01-27T07:18:21;101276.91;;;-1.34;100.00
68525;BME280;55524;51.380;13.372;2023-01-27T07:20:47;101278.75;;;-1.30;100.00
68525;BME280;55524;51.380;13.372;2023-01-27T07:23:13;101274.34;;;-1.32;100.00
68525;BME280;55524;51.380;13.372;2023-01-27T07:25:40;101277.00;;;-1.31;100.00
68525;BME280;55524;51.380;13.372;2023-01-27T07:28:07;101288.53;;;-1.18;100.00
68525;BME280;55524;51.380;13.372;2023-01-27T07:30:34;101293.66;;;-1.19;100.00
68525;BME280;55524;51.380;13.372;2023-01-27T07:33:08;101287.59;;;-1.21;100.00
68525;BME280;55524;51.380;13.372;2023-01-27T07:35:36;101299.69;;;-1.20;100.00
68525;BME280;55524;51.380;13.372;2023-01-27T07:38:03;101299.72;;;-1.19;100.00
68525;BME280;55524;51.380;13.372;2023-01-27T07:40:29;101303.06;;;-1.25;100.00
68525;BME280;55524;51.380;13.372;2023-01-27T07:42:59;101305.94;;;-1.12;100.00
68525;BME280;55524;51.380;13.372;2023-01-27T07:45:26;101307.69;;;-1.11;100.00
68525;BME280;55524;51.380;13.372;2023-01-27T07:47:58;101302.28;;;-1.20;100.00
68525;BME280;55524;51.380;13.372;2023-01-27T07:50:24;101308.34;;;-1.21;100.00
68525;BME280;55524;51.380;13.372;2023-01-27T07:52:50;101310.16;;;-1.17;100.00
68525;BME280;55524;51.380;13.372;2023-01-27T07:55:16;101313.81;;;-1.09;100.00
68525;BME280;55524;51.380;13.372;2023-01-27T07:57:43;101312.84;;;-1.13;100.00
68525;BME280;55524;51.380;13.372;2023-01-27T08:00:09;101325.06;;;-1.09;100.00
68525;BME280;55524;51.380;13.372;2023-01-27T08:02:40;101323.41;;;-1.05;100.00
68525;BME280;55524;51.380;13.372;2023-01-27T08:05:06;101324.25;;;-1.06;100.00
68525;BME280;55524;51.380;13.372;2023-01-27T08:07:33;101328.50;;;-1.10;100.00
68525;BME280;55524;51.380;13.372;2023-01-27T08:09:59;101330.13;;;-1.13;100.00
68525;BME280;55524;51.380;13.372;2023-01-27T08:12:26;101332.16;;;-1.02;100.00
68525;BME280;55524;51.380;13.372;2023-01-27T08:14:52;101323.41;;;-1.05;100.00
68525;BME280;55524;51.380;13.372;2023-01-27T08:17:18;101326.22;;;-0.96;100.00
68525;BME280;55524;51.380;13.372;2023-01-27T08:19:44;101326.38;;;-0.90;100.00
68525;BME280;55524;51.380;13.372;2023-01-27T08:22:11;101328.88;;;-0.94;100.00
68525;BME280;55524;51.380;13.372;2023-01-27T08:24:42;101333.22;;;-0.92;100.00
68525;BME280;55524;51.380;13.372;2023-01-27T08:27:08;101333.91;;;-1.01;100.00
68525;BME280;55524;51.380;13.372;2023-01-27T08:29:34;101326.47;;;-0.85;100.00
68525;BME280;55524;51.380;13.372;2023-01-27T08:32:01;101331.69;;;-0.84;100.00
68525;BME280;55524;51.380;13.372;2023-01-27T08:34:27;101340.25;;;-0.88;100.00
68525;BME280;55524;51.380;13.372;2023-01-27T08:36:53;101331.50;;;-0.93;100.00
68525;BME280;55524;51.380;13.372;2023-01-27T08:39:20;101338.28;;;-0.98;100.00
68525;BME280;55524;51.380;13.372;2023-01-27T08:41:46;101334.25;;;-0.85;100.00
68525;BME280;55524;51.380;13.372;2023-01-27T08:44:13;101347.13;;;-0.90;100.00
68525;BME280;55524;51.380;13.372;2023-01-27T08:46:39;101342.06;;;-0.84;100.00
68525;BME280;55524;51.380;13.372;2023-01-27T08:49:05;101347.34;;;-0.81;100.00
68525;BME280;55524;51.380;13.372;2023-01-27T08:51:32;101351.56;;;-0.84;100.00
68525;BME280;55524;51.380;13.372;2023-01-27T08:53:58;101349.91;;;-0.82;100.00
68525;BME280;55524;51.380;13.372;2023-01-27T08:56:25;101351.72;;;-0.78;100.00
68525;BME280;55524;51.380;13.372;2023-01-27T08:58:51;101355.19;;;-0.78;100.00
68525;BME280;55524;51.380;13.372;2023-01-27T09:01:19;101360.41;;;-0.76;100.00
68525;BME280;55524;51.380;13.372;2023-01-27T09:03:45;101360.41;;;-0.76;100.00
68525;BME280;55524;51.380;13.372;2023-01-27T09:06:13;101360.53;;;-0.71;100.00
68525;BME280;55524;51.380;13.372;2023-01-27T09:08:40;101359.63;;;-0.73;100.00
68525;BME280;55524;51.380;13.372;2023-01-27T09:11:15;101355.47;;;-0.65;100.00
68525;BME280;55524;51.380;13.372;2023-01-27T09:13:42;101359.22;;;-0.53;100.00
68525;BME280;55524;51.380;13.372;2023-01-27T09:16:09;101358.28;;;-0.56;100.00
68525;BME280;55524;51.380;13.372;2023-01-27T09:18:35;101358.50;;;-0.47;100.00
68525;BME280;55524;51.380;13.372;2023-01-27T09:21:05;101360.28;;;-0.44;100.00
68525;BME280;55524;51.380;13.372;2023-01-27T09:23:32;101367.25;;;-0.43;100.00
68525;BME280;55524;51.380;13.372;2023-01-27T09:25:58;101360.53;;;-0.34;100.00
68525;BME280;55524;51.380;13.372;2023-01-27T09:28:25;101369.09;;;-0.38;100.00
68525;BME280;55524;51.380;13.372;2023-01-27T09:30:55;101366.47;;;-0.39;100.00
68525;BME280;55524;51.380;13.372;2023-01-27T09:33:21;101367.47;;;-0.33;100.00
68525;BME280;55524;51.380;13.372;2023-01-27T09:38:22;101371.00;;;-0.29;100.00
68525;BME280;55524;51.380;13.372;2023-01-27T09:55:20;101362.94;;;-0.01;100.00
68525;BME280;55524;51.380;13.372;2023-01-27T09:58:04;101363.78;;;-0.03;100.00
68525;BME280;55524;51.380;13.372;2023-01-27T10:28:10;101368.47;;;0.15;100.00
68525;BME280;55524;51.380;13.372;2023-01-27T10:30:37;101364.13;;;0.14;100.00
68525;BME280;55524;51.380;13.372;2023-01-27T10:33:17;101368.50;;;0.16;100.00
68525;BME280;55524;51.380;13.372;2023-01-27T10:38:34;101375.38;;;0.13;100.00
68525;BME280;55524;51.380;13.372;2023-01-27T10:50:21;101378.28;;;0.28;100.00
68525;BME280;55524;51.380;13.372;2023-01-27T10:52:59;101376.56;;;0.32;100.00
68525;BME280;55524;51.380;13.372;2023-01-27T11:01:04;101379.94;;;0.26;100.00
68525;BME280;55524;51.380;13.372;2023-01-27T11:03:40;101376.34;;;0.19;100.00
68525;BME280;55524;51.380;13.372;2023-01-27T11:06:35;101373.59;;;0.12;100.00
68525;BME280;55524;51.380;13.372;2023-01-27T11:09:44;101381.59;;;0.22;100.00
68525;BME280;55524;51.380;13.372;2023-01-27T11:12:15;101384.66;;;0.03;100.00
68525;BME280;55524;51.380;13.372;2023-01-27T11:14:49;101383.88;;;0.06;100.00
68525;BME280;55524;51.380;13.372;2023-01-27T11:17:18;101384.72;;;0.05;100.00
68525;BME280;55524;51.380;13.372;2023-01-27T11:22:27;101386.56;;;0.10;100.00
68525;BME280;55524;51.380;13.372;2023-01-27T11:25:16;101391.66;;;0.04;100.00
68525;BME280;55524;51.380;13.372;2023-01-27T11:28:06;101393.47;;;0.08;100.00
68525;BME280;55524;51.380;13.372;2023-01-27T11:34:09;101381.59;;;0.21;100.00
68525;BME280;55524;51.380;13.372;2023-01-27T11:36:39;101379.88;;;0.23;100.00
68525;BME280;55524;51.380;13.372;2023-01-27T11:39:05;101387.75;;;0.26;100.00
68525;BME280;55524;51.380;13.372;2023-01-27T11:41:35;101383.50;;;0.30;100.00
68525;BME280;55524;51.380;13.372;2023-01-27T11:44:07;101384.34;;;0.29;100.00
68525;BME280;55524;51.380;13.372;2023-01-27T11:46:37;101373.97;;;0.32;100.00
68525;BME280;55524;51.380;13.372;2023-01-27T11:49:04;101370.78;;;0.45;100.00
68525;BME280;55524;51.380;13.372;2023-01-27T11:51:39;101371.66;;;0.44;100.00
68525;BME280;55524;51.380;13.372;2023-01-27T11:56:36;101365.66;;;0.49;100.00
68525;BME280;55524;51.380;13.372;2023-01-27T11:59:16;101360.69;;;0.60;100.00
68525;BME280;55524;51.380;13.372;2023-01-27T12:12:53;101353.56;;;1.00;100.00
68525;BME280;55524;51.380;13.372;2023-01-27T12:15:19;101350.28;;;1.12;100.00
68525;BME280;55524;51.380;13.372;2023-01-27T12:17:52;101349.41;;;1.11;100.00
68525;BME280;55524;51.380;13.372;2023-01-27T12:20:42;101337.69;;;1.41;100.00
68525;BME280;55524;51.380;13.372;2023-01-27T12:25:59;101342.41;;;1.66;100.00
68525;BME280;55524;51.380;13.372;2023-01-27T12:28:33;101339.75;;;1.63;100.00
68525;BME280;55524;51.380;13.372;2023-01-27T12:31:10;101341.56;;;1.69;100.00
68525;BME280;55524;51.380;13.372;2023-01-27T12:33:44;101341.34;;;1.52;100.00
68525;BME280;55524;51.380;13.372;2023-01-27T12:36:16;101341.28;;;1.49;100.00
68525;BME280;55524;51.380;13.372;2023-01-27T12:38:57;101336.06;;;1.49;100.00
68525;BME280;55524;51.380;13.372;2023-01-27T12:41:30;101316.00;;;1.42;100.00
68525;BME280;55524;51.380;13.372;2023-01-27T12:44:12;101314.94;;;1.28;100.00
68525;BME280;55524;51.380;13.372;2023-01-27T12:49:41;101314.75;;;1.15;100.00
68525;BME280;55524;51.380;13.372;2023-01-27T12:52:18;101312.38;;;1.31;100.00
68525;BME280;55524;51.380;13.372;2023-01-27T12:54:45;101306.44;;;1.39;100.00
68525;BME280;55524;51.380;13.372;2023-01-27T12:57:16;101312.47;;;1.37;100.00
68525;BME280;55524;51.380;13.372;2023-01-27T12:59:50;101309.91;;;1.41;100.00
68525;BME280;55524;51.380;13.372;2023-01-27T13:02:22;101318.69;;;1.48;100.00
68525;BME280;55524;51.380;13.372;2023-01-27T13:05:02;101314.38;;;1.50;100.00
68525;BME280;55524;51.380;13.372;2023-01-27T13:07:43;101308.22;;;1.45;100.00
68525;BME280;55524;51.380;13.372;2023-01-27T13:10:23;101309.84;;;1.37;100.00
68525;BME280;55524;51.380;13.372;2023-01-27T13:12:59;101303.84;;;1.39;100.00
68525;BME280;55524;51.380;13.372;2023-01-27T13:15:28;101310.78;;;1.40;100.00
68525;BME280;55524;51.380;13.372;2023-01-27T13:17:57;101310.78;;;1.40;100.00
68525;BME280;55524;51.380;13.372;2023-01-27T13:20:46;101320.22;;;1.32;100.00
68525;BME280;55524;51.380;13.372;2023-01-27T13:23:29;101315.66;;;1.17;100.00
68525;BME280;55524;51.380;13.372;2023-01-27T13:31:37;101312.28;;;1.25;100.00
68525;BME280;55524;51.380;13.372;2023-01-27T13:34:22;101320.09;;;1.23;100.00
68525;BME280;55524;51.380;13.372;2023-01-27T13:37:18;101326.19;;;1.25;100.00
68525;BME280;55524;51.380;13.372;2023-01-27T13:46:01;101320.03;;;1.21;100.00
68525;BME280;55524;51.380;13.372;2023-01-27T13:48:41;101334.84;;;1.24;100.00
68525;BME280;55524;51.380;13.372;2023-01-27T13:51:17;101326.91;;;1.16;100.00
68525;BME280;55524;51.380;13.372;2023-01-27T13:53:45;101326.06;;;1.17;100.00
68525;BME280;55524;51.380;13.372;2023-01-27T13:56:34;101332.97;;;1.15;100.00
68525;BME280;55524;51.380;13.372;2023-01-27T13:59:34;101331.25;;;1.16;100.00
68525;BME280;55524;51.380;13.372;2023-01-27T14:05:14;101335.59;;;1.18;100.00
68525;BME280;55524;51.380;13.372;2023-01-27T14:14:12;101346.00;;;1.15;100.00
68525;BME280;55524;51.380;13.372;2023-01-27T14:20:17;101346.94;;;1.19;100.00
68525;BME280;55524;51.380;13.372;2023-01-27T14:31:17;101341.78;;;1.23;100.00
68525;BME280;55524;51.380;13.372;2023-01-27T14:37:29;101343.50;;;1.23;100.00
68525;BME280;55524;51.380;13.372;2023-01-27T14:40:04;101346.06;;;1.21;100.00
68525;BME280;55524;51.380;13.372;2023-01-27T14:45:36;101348.72;;;1.25;100.00
68525;BME280;55524;51.380;13.372;2023-01-27T14:48:37;101346.88;;;1.17;100.00
68525;BME280;55524;51.380;13.372;2023-01-27T14:51:37;101353.75;;;1.14;100.00
68525;BME280;55524;51.380;13.372;2023-01-27T14:57:19;101356.34;;;1.12;100.00
68525;BME280;55524;51.380;13.372;2023-01-27T15:05:16;101352.81;;;1.07;100.00
68525;BME280;55524;51.380;13.372;2023-01-27T15:25:48;101365.09;;;1.17;100.00
68525;BME280;55524;51.380;13.372;2023-01-27T15:28:18;101372.78;;;1.10;100.00
68525;BME280;55524;51.380;13.372;2023-01-27T15:36:35;101371.97;;;1.12;100.00
68525;BME280;55524;51.380;13.372;2023-01-27T15:44:27;101380.66;;;1.13;100.00
68525;BME280;55524;51.380;13.372;2023-01-27T15:47:01;101384.19;;;1.16;100.00
68525;BME280;55524;51.380;13.372;2023-01-27T15:50:06;101391.19;;;1.22;100.00